createdAt,value
2022-08-23T00:00:13.491Z,15.00
2022-08-23T00:02:43.720Z,9.07
2022-08-23T00:05:12.979Z,11.57
2022-08-23T00:07:44.026Z,9.70
2022-08-23T00:10:15.656Z,11.63
2022-08-23T00:12:45.009Z,11.93
2022-08-23T00:15:18.066Z,12.17
2022-08-23T00:17:46.366Z,13.70
2022-08-23T00:20:17.467Z,12.53
2022-08-23T00:22:46.102Z,13.70
2022-08-23T00:25:15.455Z,11.80
2022-08-23T00:27:44.025Z,13.20
2022-08-23T00:30:15.196Z,11.30
2022-08-23T00:32:45.376Z,10.80
2022-08-23T00:35:22.245Z,13.17
2022-08-23T00:38:32.886Z,12.73
2022-08-23T00:40:51.973Z,11.90
2022-08-23T00:43:46.642Z,11.53
2022-08-23T00:46:48.125Z,11.13
2022-08-23T00:49:17.742Z,10.77
2022-08-23T00:51:54.162Z,11.73
2022-08-23T00:54:24.907Z,9.50
2022-08-23T00:56:56.592Z,12.03
2022-08-23T00:59:24.966Z,9.93
2022-08-23T01:01:54.723Z,11.50
2022-08-23T01:04:22.894Z,10.47
2022-08-23T01:06:58.984Z,10.23
2022-08-23T01:09:27.619Z,12.83
2022-08-23T01:12:02.846Z,13.53
2022-08-23T01:14:37.076Z,12.37
2022-08-23T01:17:11.678Z,12.63
2022-08-23T01:19:45.644Z,10.70
2022-08-23T01:22:22.041Z,14.30
2022-08-23T01:25:06.839Z,12.97
2022-08-23T01:27:37.391Z,14.13
2022-08-23T01:30:09.239Z,11.30
2022-08-23T01:32:47.617Z,13.07
2022-08-23T01:35:17.078Z,15.70
2022-08-23T01:37:46.994Z,12.33
2022-08-23T01:40:17.140Z,14.10
2022-08-23T01:42:45.336Z,17.37
2022-08-23T01:45:15.173Z,14.07
2022-08-23T01:47:44.052Z,14.97
2022-08-23T01:50:14.183Z,13.23
2022-08-23T01:52:47.036Z,13.40
2022-08-23T01:55:17.935Z,13.70
2022-08-23T01:57:48.321Z,13.00
2022-08-23T02:00:18.346Z,13.20
2022-08-23T02:02:47.129Z,14.13
2022-08-23T02:05:18.874Z,15.63
2022-08-23T02:07:48.065Z,16.13
2022-08-23T02:10:17.705Z,13.97
2022-08-23T02:12:46.665Z,14.43
2022-08-23T02:15:16.062Z,12.87
2022-08-23T02:17:45.514Z,15.83
2022-08-23T02:20:14.174Z,12.80
2022-08-23T02:22:42.420Z,15.37
2022-08-23T02:25:11.516Z,11.33
2022-08-23T02:27:44.159Z,12.20
2022-08-23T02:30:13.927Z,13.20
2022-08-23T02:32:42.472Z,13.87
2022-08-23T02:35:10.944Z,13.10
2022-08-23T02:37:39.314Z,14.67
2022-08-23T02:40:08.856Z,15.90
2022-08-23T02:42:37.032Z,15.80
2022-08-23T02:45:09.540Z,13.20
2022-08-23T02:47:37.989Z,16.60
2022-08-23T02:50:08.154Z,14.60
2022-08-23T02:52:36.503Z,12.80
2022-08-23T02:55:05.831Z,17.00
2022-08-23T02:57:34.220Z,17.63
2022-08-23T03:00:02.394Z,13.07
2022-08-23T03:02:32.888Z,16.27
2022-08-23T03:05:01.087Z,18.60
2022-08-23T03:07:30.130Z,17.33
2022-08-23T03:09:58.319Z,18.73
2022-08-23T03:12:27.122Z,16.70
2022-08-23T03:14:55.845Z,16.20
2022-08-23T03:17:24.478Z,15.73
2022-08-23T03:19:53.923Z,13.00
2022-08-23T03:22:23.361Z,19.60
2022-08-23T03:24:52.779Z,18.57
2022-08-23T03:27:20.925Z,17.93
2022-08-23T03:29:49.067Z,17.67
2022-08-23T03:32:17.259Z,21.97
2022-08-23T03:34:45.447Z,19.27
2022-08-23T03:37:15.453Z,15.83
2022-08-23T03:39:43.589Z,18.03
2022-08-23T03:42:11.982Z,16.30
2022-08-23T03:44:40.313Z,18.47
2022-08-23T03:47:08.567Z,20.07
2022-08-23T03:49:37.222Z,21.80
2022-08-23T03:52:06.978Z,20.23
2022-08-23T03:54:40.116Z,21.57
2022-08-23T03:57:10.866Z,19.90
2022-08-23T03:59:42.633Z,21.17
2022-08-23T04:02:11.186Z,23.70
2022-08-23T04:04:39.441Z,27.00
2022-08-23T04:07:07.581Z,24.30
2022-08-23T04:09:37.083Z,30.67
2022-08-23T04:12:11.952Z,32.23
2022-08-23T04:14:46.123Z,36.83
2022-08-23T04:17:14.580Z,32.93
2022-08-23T04:19:43.113Z,31.67
2022-08-23T04:22:14.254Z,34.43
2022-08-23T04:24:44.168Z,33.13
2022-08-23T04:27:13.106Z,33.30
2022-08-23T04:29:41.441Z,34.20
2022-08-23T04:32:12.601Z,34.17
2022-08-23T04:34:42.381Z,35.73
2022-08-23T04:37:14.329Z,33.97
2022-08-23T04:40:01.495Z,35.17
2022-08-23T04:42:29.992Z,32.40
2022-08-23T04:44:58.404Z,33.87
2022-08-23T04:47:26.611Z,37.93
2022-08-23T04:49:54.773Z,32.80
2022-08-23T04:52:22.882Z,32.97
2022-08-23T04:54:52.586Z,33.53
2022-08-23T04:57:20.763Z,30.83
2022-08-23T04:59:48.884Z,28.30
2022-08-23T05:02:17.014Z,32.37
2022-08-23T05:04:45.168Z,28.87
2022-08-23T05:07:15.322Z,30.10
2022-08-23T05:09:43.438Z,29.57
2022-08-23T05:12:13.274Z,30.37
2022-08-23T05:14:41.366Z,29.40
2022-08-23T05:17:16.028Z,27.70
2022-08-23T05:19:47.233Z,28.10
2022-08-23T05:22:15.826Z,27.00
2022-08-23T05:24:43.908Z,28.97
2022-08-23T05:27:13.886Z,28.80
2022-08-23T05:29:42.468Z,31.40
2022-08-23T05:32:10.791Z,31.87
2022-08-23T05:34:40.349Z,27.97
2022-08-23T05:37:08.414Z,32.27
2022-08-23T05:39:37.430Z,34.57
2022-08-23T05:42:06.622Z,27.40
2022-08-23T05:44:37.203Z,28.93
2022-08-23T05:47:11.220Z,26.27
2022-08-23T05:49:40.205Z,28.60
2022-08-23T05:52:11.683Z,26.07
2022-08-23T05:54:40.535Z,23.80
2022-08-23T05:57:10.515Z,25.67
2022-08-23T05:59:41.841Z,24.87
2022-08-23T06:02:10.657Z,23.67
2022-08-23T06:04:38.741Z,24.10
2022-08-23T06:07:07.004Z,24.30
2022-08-23T06:09:35.365Z,22.83
2022-08-23T06:12:03.991Z,21.83
2022-08-23T06:14:32.154Z,21.87
2022-08-23T06:17:01.763Z,22.53
2022-08-23T06:19:29.821Z,20.07
2022-08-23T06:21:58.000Z,22.07
2022-08-23T06:24:26.580Z,20.90
2022-08-23T06:26:54.700Z,20.30
2022-08-23T06:29:23.704Z,19.43
2022-08-23T06:31:54.119Z,19.73
2022-08-23T06:34:27.617Z,20.03
2022-08-23T06:36:59.084Z,20.00
2022-08-23T06:39:33.433Z,18.87
2022-08-23T06:42:34.476Z,18.17
2022-08-23T06:44:56.752Z,18.63
2022-08-23T06:47:24.886Z,18.13
2022-08-23T06:49:58.110Z,18.17
2022-08-23T06:52:28.348Z,16.83
2022-08-23T06:54:57.743Z,17.90
2022-08-23T06:57:26.482Z,15.77
2022-08-23T06:59:55.063Z,16.50
2022-08-23T07:02:23.276Z,16.63
2022-08-23T07:04:54.232Z,16.07
2022-08-23T07:07:22.618Z,16.60
2022-08-23T07:09:50.853Z,16.47
2022-08-23T07:12:19.857Z,15.60
2022-08-23T07:14:48.043Z,15.40
2022-08-23T07:17:16.290Z,14.20
2022-08-23T07:19:44.807Z,14.60
2022-08-23T07:22:15.589Z,14.50
2022-08-23T07:24:44.115Z,13.93
2022-08-23T07:27:12.669Z,16.10
2022-08-23T07:29:41.446Z,12.80
2022-08-23T07:32:10.329Z,12.53
2022-08-23T07:34:38.860Z,12.37
2022-08-23T07:37:11.199Z,12.23
2022-08-23T07:39:45.629Z,12.03
2022-08-23T07:42:23.297Z,12.80
2022-08-23T07:44:53.571Z,12.43
2022-08-23T07:47:22.166Z,11.20
2022-08-23T07:49:50.940Z,11.73
2022-08-23T07:52:19.096Z,10.90
2022-08-23T07:54:51.197Z,14.20
2022-08-23T07:57:20.034Z,11.53
2022-08-23T07:59:48.631Z,10.73
2022-08-23T08:02:16.886Z,10.70
2022-08-23T08:04:45.144Z,11.37
2022-08-23T08:07:21.361Z,12.10
2022-08-23T08:09:51.048Z,12.00
2022-08-23T08:12:20.039Z,11.13
2022-08-23T08:14:49.201Z,10.32
2022-08-23T08:17:18.389Z,10.93
2022-08-23T08:19:49.110Z,12.48
2022-08-23T08:22:17.238Z,12.93
2022-08-23T08:24:45.524Z,10.48
2022-08-23T08:27:15.224Z,12.00
2022-08-23T08:29:44.020Z,8.95
2022-08-23T08:32:13.962Z,9.13
2022-08-23T08:34:43.109Z,10.35
2022-08-23T08:37:11.442Z,8.55
2022-08-23T08:39:45.432Z,8.32
2022-08-23T08:42:55.489Z,8.82
2022-08-23T08:45:28.177Z,8.25
2022-08-23T08:48:04.106Z,9.45
2022-08-23T08:50:37.722Z,8.45
2022-08-23T08:53:10.604Z,8.63
2022-08-23T08:55:45.706Z,10.82
2022-08-23T08:58:21.921Z,7.05
2022-08-23T09:00:55.629Z,8.60
2022-08-23T09:03:30.677Z,7.40
2022-08-23T09:06:04.975Z,8.25
2022-08-23T09:08:49.444Z,8.38
2022-08-23T09:11:30.330Z,7.28
2022-08-23T09:14:37.910Z,8.77
2022-08-23T09:17:16.903Z,6.05
2022-08-23T09:19:49.849Z,6.13
2022-08-23T09:22:42.577Z,6.70
2022-08-23T09:25:13.009Z,6.68
2022-08-23T09:27:42.983Z,7.55
2022-08-23T09:30:15.245Z,8.60
2022-08-23T09:32:48.305Z,6.65
2022-08-23T09:35:20.900Z,7.38
2022-08-23T09:37:59.385Z,7.32
2022-08-23T09:40:38.981Z,6.72
2022-08-23T09:43:15.828Z,7.05
2022-08-23T09:45:58.909Z,7.35
2022-08-23T09:48:43.154Z,6.45
2022-08-23T09:51:19.897Z,5.90
2022-08-23T09:53:53.394Z,5.40
2022-08-23T09:56:26.571Z,6.35
2022-08-23T09:58:55.365Z,6.07
2022-08-23T10:01:28.592Z,6.22
2022-08-23T10:04:14.512Z,7.50
2022-08-23T10:06:46.156Z,6.65
2022-08-23T10:09:26.211Z,7.95
2022-08-23T10:11:55.042Z,5.30
2022-08-23T10:14:29.526Z,7.95
2022-08-23T10:17:09.408Z,5.95
2022-08-23T10:19:50.136Z,6.70
2022-08-23T10:22:22.625Z,7.57
2022-08-23T10:25:05.775Z,4.53
2022-08-23T10:28:06.398Z,4.60
2022-08-23T10:30:47.354Z,6.30
2022-08-23T10:33:21.926Z,4.45
2022-08-23T10:35:59.717Z,6.63
2022-08-23T10:38:38.758Z,6.10
2022-08-23T10:41:27.994Z,8.23
2022-08-23T10:44:16.002Z,4.90
2022-08-23T10:47:06.159Z,3.90
2022-08-23T10:49:39.284Z,6.22
2022-08-23T10:52:15.324Z,4.68
2022-08-23T10:54:59.905Z,4.25
2022-08-23T10:57:35.379Z,6.18
2022-08-23T11:00:08.888Z,5.45
2022-08-23T11:02:51.192Z,5.00
2022-08-23T11:05:27.121Z,4.70
2022-08-23T11:08:03.121Z,3.85
2022-08-23T11:10:53.834Z,5.82
2022-08-23T11:13:27.009Z,3.47
2022-08-23T11:16:01.809Z,4.00
2022-08-23T11:18:42.009Z,5.25
2022-08-23T11:21:44.722Z,5.38
2022-08-23T11:24:59.115Z,3.80
2022-08-23T11:27:38.181Z,6.50
2022-08-23T11:30:59.328Z,4.00
2022-08-23T11:33:34.813Z,5.13
2022-08-23T11:36:22.017Z,6.05
2022-08-23T11:39:09.122Z,3.50
2022-08-23T11:42:02.325Z,3.38
2022-08-23T11:44:38.847Z,3.67
2022-08-23T11:47:11.551Z,5.38
2022-08-23T11:50:26.132Z,3.92
2022-08-23T11:53:19.983Z,4.03
2022-08-23T11:56:17.573Z,4.35
2022-08-23T11:59:17.303Z,5.47
2022-08-23T12:01:47.214Z,3.88
2022-08-23T12:04:34.338Z,4.35
2022-08-23T12:07:07.141Z,5.75
2022-08-23T12:09:57.338Z,3.75
2022-08-23T12:12:34.831Z,3.97
2022-08-23T12:15:12.288Z,5.70
2022-08-23T12:18:14.504Z,6.38
2022-08-23T12:20:48.227Z,5.65
2022-08-23T12:23:22.103Z,3.95
2022-08-23T12:26:06.356Z,4.55
2022-08-23T12:28:42.537Z,3.90
2022-08-23T12:31:23.580Z,4.78
2022-08-23T12:34:13.565Z,4.05
2022-08-23T12:36:50.167Z,3.58
2022-08-23T12:39:30.946Z,2.80
2022-08-23T12:42:08.515Z,4.22
2022-08-23T12:44:36.857Z,3.92
2022-08-23T12:47:16.584Z,5.15
2022-08-23T12:49:58.160Z,3.83
2022-08-23T12:52:29.566Z,3.85
2022-08-23T12:54:58.126Z,4.50
2022-08-23T12:57:36.790Z,4.25
2022-08-23T13:00:24.470Z,3.83
2022-08-23T13:02:59.559Z,4.78
2022-08-23T13:05:37.965Z,2.95
2022-08-23T13:08:16.893Z,4.15
2022-08-23T13:10:46.594Z,5.00
2022-08-23T13:13:20.566Z,4.82
2022-08-23T13:15:53.903Z,4.38
2022-08-23T13:18:42.432Z,3.25
2022-08-23T13:21:31.875Z,4.45
2022-08-23T13:24:38.653Z,3.80
2022-08-23T13:27:22.145Z,3.75
2022-08-23T13:29:57.534Z,4.07
2022-08-23T13:32:33.447Z,5.15
2022-08-23T13:35:31.350Z,3.40
2022-08-23T13:38:09.349Z,3.15
2022-08-23T13:40:53.775Z,3.63
2022-08-23T13:43:25.741Z,4.10
2022-08-23T13:45:58.625Z,4.95
2022-08-23T13:48:31.608Z,5.18
2022-08-23T13:51:32.766Z,4.60
2022-08-23T13:54:06.043Z,4.60
2022-08-23T13:56:44.565Z,3.92
2022-08-23T13:59:31.707Z,4.43
2022-08-23T14:02:05.955Z,3.58
2022-08-23T14:04:34.703Z,4.00
2022-08-23T14:07:02.752Z,2.88
2022-08-23T14:09:30.866Z,3.20
2022-08-23T14:12:03.085Z,4.70
2022-08-23T14:14:35.070Z,4.53
2022-08-23T14:17:05.218Z,4.07
2022-08-23T14:22:27.760Z,3.67
2022-08-23T14:24:58.349Z,4.40
2022-08-23T14:27:26.495Z,3.70
2022-08-23T14:29:54.680Z,6.80
2022-08-23T14:32:24.462Z,4.85
2022-08-23T14:34:53.773Z,5.32
2022-08-23T14:38:02.929Z,3.50
2022-08-23T14:40:11.480Z,4.28
2022-08-23T14:42:39.736Z,3.42
2022-08-23T14:45:09.574Z,4.88
2022-08-23T14:47:39.083Z,3.53
2022-08-23T14:50:10.771Z,4.90
2022-08-23T14:52:42.125Z,3.25
2022-08-23T14:55:12.131Z,4.63
2022-08-23T14:57:40.475Z,5.10
2022-08-23T15:00:14.551Z,6.40
2022-08-23T15:02:47.464Z,3.97
2022-08-23T15:05:19.149Z,4.10
2022-08-23T15:07:50.737Z,3.78
2022-08-23T15:13:22.103Z,5.53
2022-08-23T15:15:55.633Z,5.90
2022-08-23T15:18:25.229Z,5.22
2022-08-23T15:20:53.668Z,5.25
2022-08-23T15:23:22.101Z,6.70
2022-08-23T15:25:50.462Z,4.45
2022-08-23T15:28:21.273Z,3.63
2022-08-23T15:30:51.713Z,3.10
2022-08-23T15:33:27.168Z,3.70
2022-08-23T15:36:03.485Z,3.80
2022-08-23T15:38:32.691Z,5.40
2022-08-23T15:41:01.419Z,4.75
2022-08-23T15:43:34.385Z,3.33
2022-08-23T15:46:06.529Z,4.78
2022-08-23T15:48:38.004Z,3.63
2022-08-23T15:51:07.984Z,3.65
2022-08-23T15:53:37.715Z,3.45
2022-08-23T15:56:11.490Z,2.58
2022-08-23T15:58:42.031Z,3.85
2022-08-23T16:01:10.633Z,4.35
2022-08-23T16:03:42.215Z,4.63
2022-08-23T16:06:14.196Z,3.75
2022-08-23T16:08:47.146Z,4.43
2022-08-23T16:11:15.297Z,4.30
2022-08-23T16:13:46.833Z,4.22
2022-08-23T16:16:20.790Z,3.28
2022-08-23T16:18:49.088Z,7.90
2022-08-23T16:21:20.127Z,3.85
2022-08-23T16:23:48.465Z,5.28
2022-08-23T16:26:21.567Z,3.90
2022-08-23T16:28:53.694Z,5.38
2022-08-23T16:31:23.001Z,4.13
2022-08-23T16:34:10.953Z,5.18
2022-08-23T16:36:44.693Z,5.05
2022-08-23T16:39:13.666Z,4.80
2022-08-23T16:41:42.147Z,5.63
2022-08-23T16:44:10.226Z,3.20
2022-08-23T16:46:42.751Z,3.95
2022-08-23T16:49:11.183Z,4.88
2022-08-23T16:51:41.125Z,5.95
2022-08-23T16:54:10.024Z,4.63
2022-08-23T16:56:40.738Z,4.15
2022-08-23T16:59:11.415Z,6.38
2022-08-23T17:01:50.574Z,5.20
2022-08-23T17:04:21.256Z,5.25
2022-08-23T17:06:52.317Z,7.60
2022-08-23T17:09:20.940Z,4.45
2022-08-23T17:11:50.270Z,4.07
2022-08-23T17:14:19.830Z,4.95
2022-08-23T17:16:48.290Z,4.88
2022-08-23T17:19:16.509Z,4.47
2022-08-23T17:21:45.076Z,5.53
2022-08-23T17:24:14.610Z,4.55
2022-08-23T17:26:43.088Z,4.75
2022-08-23T17:29:12.494Z,5.72
2022-08-23T17:31:40.685Z,6.22
2022-08-23T17:34:09.253Z,6.38
2022-08-23T17:36:41.830Z,5.47
2022-08-23T17:39:18.938Z,4.57
2022-08-23T17:41:47.873Z,4.63
2022-08-23T17:44:16.450Z,5.28
2022-08-23T17:46:46.364Z,5.55
2022-08-23T17:49:20.289Z,5.75
2022-08-23T17:51:49.330Z,5.13
2022-08-23T17:54:18.859Z,10.27
2022-08-23T17:56:50.644Z,5.88
2022-08-23T17:59:19.654Z,6.45
2022-08-23T18:01:47.938Z,6.80
2022-08-23T18:04:16.243Z,5.93
2022-08-23T18:06:44.998Z,4.10
2022-08-23T18:09:13.777Z,4.78
2022-08-23T18:11:43.370Z,6.25
2022-08-23T18:14:12.070Z,4.20
2022-08-23T18:16:40.794Z,4.78
2022-08-23T18:19:13.476Z,4.15
2022-08-23T18:21:42.303Z,5.65
2022-08-23T18:24:11.007Z,4.50
2022-08-23T18:26:57.585Z,6.40
2022-08-23T18:29:27.501Z,5.20
2022-08-23T18:31:55.666Z,7.93
2022-08-23T18:34:24.551Z,9.18
2022-08-23T18:36:53.736Z,10.95
2022-08-23T18:39:31.480Z,8.45
2022-08-23T18:42:01.179Z,10.43
2022-08-23T18:44:31.453Z,10.77
2022-08-23T18:46:59.947Z,12.15
2022-08-23T18:49:28.115Z,14.32
2022-08-23T18:51:56.551Z,14.23
2022-08-23T18:54:24.779Z,16.42
2022-08-23T18:56:52.894Z,16.92
2022-08-23T18:59:21.258Z,17.05
2022-08-23T19:01:51.196Z,18.20
2022-08-23T19:04:20.368Z,18.23
2022-08-23T19:06:48.529Z,21.50
2022-08-23T19:09:16.776Z,22.23
2022-08-23T19:11:45.564Z,22.83
2022-08-23T19:14:14.288Z,21.50
2022-08-23T19:16:47.598Z,22.85
2022-08-23T19:19:19.434Z,23.40
2022-08-23T19:21:49.175Z,21.52
2022-08-23T19:24:17.864Z,22.23
2022-08-23T19:26:47.587Z,21.92
2022-08-23T19:29:20.510Z,23.92
2022-08-23T19:31:49.005Z,25.90
2022-08-23T19:34:20.605Z,26.00
2022-08-23T19:36:56.740Z,26.75
2022-08-23T19:39:29.494Z,26.77
2022-08-23T19:41:58.483Z,26.67
2022-08-23T19:44:28.864Z,27.25
2022-08-23T19:46:57.608Z,29.80
2022-08-23T19:49:27.172Z,28.33
2022-08-23T19:51:55.480Z,29.10
2022-08-23T19:54:25.867Z,28.50
2022-08-23T19:56:58.441Z,29.42
2022-08-23T19:59:29.579Z,28.88
2022-08-23T20:01:59.375Z,30.33
2022-08-23T20:04:32.087Z,32.38
2022-08-23T20:07:03.984Z,35.22
2022-08-23T20:09:34.053Z,34.00
2022-08-23T20:12:03.245Z,33.78
2022-08-23T20:14:33.130Z,34.22
2022-08-23T20:17:04.617Z,36.25
2022-08-23T20:19:35.100Z,34.20
2022-08-23T20:22:17.174Z,37.25
2022-08-23T20:24:53.318Z,34.08
2022-08-23T20:27:28.358Z,35.28
2022-08-23T20:30:01.629Z,36.60
2022-08-23T20:32:31.152Z,38.53
2022-08-23T20:35:01.831Z,38.70
2022-08-23T20:37:30.855Z,39.45
2022-08-23T20:39:59.270Z,37.58
2022-08-23T20:42:28.539Z,41.20
2022-08-23T20:44:59.613Z,40.07
2022-08-23T20:47:27.734Z,36.22
2022-08-23T20:49:55.990Z,40.85
2022-08-23T20:52:25.492Z,39.80
2022-08-23T20:54:53.678Z,39.63
2022-08-23T20:57:21.972Z,41.20
2022-08-23T20:59:50.182Z,41.00
2022-08-23T21:02:18.465Z,42.53
2022-08-23T21:04:47.225Z,43.97
2022-08-23T21:07:16.197Z,42.57
2022-08-23T21:09:46.062Z,44.43
2022-08-23T21:12:14.170Z,44.53
2022-08-23T21:14:42.272Z,45.10
2022-08-23T21:17:10.457Z,44.30
2022-08-23T21:19:39.019Z,41.90
2022-08-23T21:22:07.214Z,42.20
2022-08-23T21:24:35.404Z,45.10
2022-08-23T21:27:09.542Z,46.57
2022-08-23T21:29:38.611Z,47.23
2022-08-23T21:32:07.469Z,44.63
2022-08-23T21:34:36.077Z,42.93
2022-08-23T21:37:04.259Z,42.28
2022-08-23T21:39:32.407Z,44.97
2022-08-23T21:42:00.545Z,47.43
2022-08-23T21:44:30.079Z,48.73
2022-08-23T21:46:58.326Z,48.63
2022-08-23T21:49:26.502Z,49.42
2022-08-23T21:51:54.593Z,49.67
2022-08-23T21:54:24.496Z,55.08
2022-08-23T21:56:53.333Z,54.73
2022-08-23T21:59:21.676Z,54.03
2022-08-23T22:01:51.749Z,53.00
2022-08-23T22:04:20.057Z,51.05
2022-08-23T22:06:48.987Z,54.33
2022-08-23T22:09:20.265Z,58.33
2022-08-23T22:11:54.882Z,59.33
2022-08-23T22:14:31.199Z,61.67
2022-08-23T22:17:01.790Z,58.53
2022-08-23T22:19:30.232Z,61.07
2022-08-23T22:21:58.646Z,60.43
2022-08-23T22:24:27.042Z,60.40
2022-08-23T22:26:56.254Z,58.30
2022-08-23T22:29:24.934Z,61.93
2022-08-23T22:31:53.079Z,59.33
2022-08-23T22:34:22.659Z,55.17
2022-08-23T22:36:52.223Z,57.30
2022-08-23T22:39:21.551Z,55.27
2022-08-23T22:41:50.012Z,60.40
2022-08-23T22:44:18.419Z,50.70
2022-08-23T22:46:46.677Z,56.50
2022-08-23T22:49:15.118Z,49.83
2022-08-23T22:51:45.322Z,56.93
2022-08-23T22:54:14.836Z,63.57
2022-08-23T22:56:45.953Z,58.23
2022-08-23T22:59:16.118Z,64.23
2022-08-23T23:01:47.732Z,63.63
2022-08-23T23:04:18.887Z,64.13
2022-08-23T23:06:50.735Z,67.17
2022-08-23T23:09:19.370Z,60.73
2022-08-23T23:11:48.584Z,66.77
2022-08-23T23:14:20.002Z,64.63
2022-08-23T23:16:50.033Z,66.20
2022-08-23T23:19:36.531Z,65.90
2022-08-23T23:22:07.765Z,66.20
2022-08-23T23:24:39.681Z,68.17
2022-08-23T23:27:08.821Z,66.07
2022-08-23T23:29:38.370Z,67.50
2022-08-23T23:32:06.992Z,59.70
2022-08-23T23:34:35.853Z,66.13
2022-08-23T23:37:05.699Z,71.13
2022-08-23T23:39:34.035Z,71.67
2022-08-23T23:42:02.199Z,68.83
2022-08-23T23:44:31.503Z,66.17
2022-08-23T23:47:01.259Z,69.23
2022-08-23T23:49:32.677Z,69.83
2022-08-23T23:52:02.692Z,72.00
2022-08-23T23:54:33.924Z,73.83
2022-08-23T23:57:02.801Z,77.63
2022-08-23T23:59:30.945Z,74.00
